Time;durP1;ratioP1;P1;durP2;ratioP2;P2;SDS_P1;SDS_P2;PMS_P1;PMS_P2;Temp;Humidity;BMP_temperature;BMP_pressure;BME280_temperature;BME280_humidity;BME280_pressure;Samples;Min_cycle;Max_cycle;Signal;HPM_P1;HPM_P2
2022/01/29 00:00:09;;;;;;;22.30;15.70;;;5.90;1.00;6.30;102029.00;;;;5067583;28;20482;-80
2022/01/29 00:02:40;;;;;;;22.83;16.20;;;5.90;1.00;6.30;102013.00;;;;5070146;28;20474;-81
2022/01/29 00:05:10;;;;;;;22.07;16.20;;;5.90;1.00;6.30;102023.00;;;;5076377;28;20462;-82
2022/01/29 00:07:41;;;;;;;24.83;17.93;;;5.90;1.00;6.40;102015.00;;;;5068174;28;20549;-80
2022/01/29 00:10:11;;;;;;;21.97;14.47;;;5.90;1.00;6.40;102007.00;;;;5063325;28;20481;-82
2022/01/29 00:12:43;;;;;;;23.27;17.70;;;5.90;1.00;6.40;102011.00;;;;5063033;28;20451;-83
2022/01/29 00:15:12;;;;;;;21.87;16.47;;;5.90;1.00;6.30;102023.00;;;;5062449;28;20486;-79
2022/01/29 00:17:40;;;;;;;23.27;15.13;;;5.90;1.00;6.30;102025.00;;;;5059139;28;20531;-81
2022/01/29 00:20:11;;;;;;;23.10;17.10;;;5.90;1.00;6.40;102002.00;;;;5055950;28;20999;-81
2022/01/29 00:22:40;;;;;;;24.07;16.50;;;5.90;1.00;6.40;102010.00;;;;5057382;28;20463;-85
2022/01/29 00:25:10;;;;;;;25.10;18.33;;;6.00;1.00;6.40;102038.00;;;;5059191;28;20459;-86
2022/01/29 00:27:40;;;;;;;23.77;16.67;;;5.90;1.00;6.30;102037.00;;;;5070316;28;20462;-84
2022/01/29 00:30:16;;;;;;;25.07;17.83;;;5.90;1.00;6.40;102023.00;;;;5056251;28;20869;-82
2022/01/29 00:32:45;;;;;;;19.73;15.23;;;6.00;1.00;6.50;102026.00;;;;5055301;28;20450;-82
2022/01/29 00:35:13;;;;;;;21.13;16.00;;;6.00;1.00;6.50;102027.00;;;;5055563;28;20466;-84
2022/01/29 00:37:41;;;;;;;18.73;15.90;;;6.10;1.00;6.50;67702.00;;;;5056226;28;20479;-84
2022/01/29 00:40:12;;;;;;;23.87;15.70;;;6.10;1.00;6.60;102021.00;;;;5055142;28;20472;-84
2022/01/29 00:42:40;;;;;;;18.60;15.53;;;6.10;1.00;6.50;102005.00;;;;5054437;28;20455;-82
2022/01/29 00:45:10;;;;;;;23.77;16.70;;;6.30;1.00;6.50;101842.00;;;;5055221;28;20501;-82
2022/01/29 00:47:39;;;;;;;24.20;15.10;;;6.10;1.00;217.30;159472.00;;;;5055325;28;20451;-82
2022/01/29 00:50:08;;;;;;;21.20;14.90;;;6.10;1.00;6.50;102004.00;;;;5057735;28;20474;-82
2022/01/29 00:52:38;;;;;;;24.93;16.33;;;6.10;1.00;6.50;101997.00;;;;5057176;28;20460;-83
2022/01/29 00:55:08;;;;;;;26.93;18.63;;;6.10;1.00;6.50;101992.00;;;;5073906;28;20451;-83
2022/01/29 00:57:39;;;;;;;22.43;16.00;;;6.10;1.00;6.50;101986.00;;;;5072242;28;20452;-83
2022/01/29 01:00:12;;;;;;;20.43;15.43;;;6.10;1.00;6.50;67698.00;;;;5077795;28;20550;-85
2022/01/29 01:02:41;;;;;;;20.63;15.20;;;6.10;1.00;6.50;101983.00;;;;5068846;28;20541;-82
2022/01/29 01:05:10;;;;;;;22.10;14.77;;;6.10;1.00;6.50;67696.00;;;;5058490;28;20897;-83
2022/01/29 01:07:39;;;;;;;20.47;14.60;;;6.10;1.00;217.30;159459.00;;;;5059045;28;20471;-82
2022/01/29 01:10:10;;;;;;;19.07;15.00;;;6.00;1.00;6.50;67690.00;;;;5059722;28;20484;-83
2022/01/29 01:12:39;;;;;;;22.90;16.37;;;6.00;1.00;6.50;67687.00;;;;5052457;28;20469;-82
2022/01/29 01:15:10;;;;;;;20.43;15.37;;;6.00;1.00;6.40;101966.00;;;;5054947;28;21360;-86
2022/01/29 01:17:39;;;;;;;25.17;16.00;;;6.00;1.00;6.40;101957.00;;;;5061559;28;20452;-86
2022/01/29 01:20:09;;;;;;;22.60;15.63;;;6.00;1.00;6.40;101958.00;;;;5047711;28;20810;-84
2022/01/29 01:22:37;;;;;;;24.30;14.80;;;6.00;1.00;6.40;101962.00;;;;5062163;28;20538;-83
2022/01/29 01:25:08;;;;;;;20.73;14.77;;;6.00;1.00;6.40;101949.00;;;;5063669;28;20459;-83
2022/01/29 01:27:37;;;;;;;21.03;16.00;;;6.00;1.00;6.40;101942.00;;;;5063186;28;20466;-82
2022/01/29 01:30:07;;;;;;;22.47;15.20;;;6.00;1.00;6.40;101826.00;;;;5064289;28;20487;-82
2022/01/29 01:32:37;;;;;;;24.47;17.20;;;6.00;1.00;6.40;101935.00;;;;5068357;28;20441;-84
2022/01/29 01:35:13;;;;;;;21.23;15.50;;;6.00;1.00;6.40;101463.00;;;;5067986;28;20456;-89
2022/01/29 01:37:47;;;;;;;18.10;13.40;;;6.00;1.00;6.40;101947.00;;;;5068203;28;20451;-87
2022/01/29 01:40:16;;;;;;;18.07;12.73;;;6.00;1.00;6.40;101923.00;;;;5086195;28;20490;-85
2022/01/29 01:42:45;;;;;;;25.27;15.77;;;6.00;1.00;217.30;159405.00;;;;5085204;28;20459;-82
2022/01/29 01:45:13;;;;;;;18.07;13.43;;;5.90;1.00;6.40;67665.00;;;;5057592;28;20445;-80
2022/01/29 01:47:43;;;;;;;20.70;14.23;;;5.90;1.00;6.30;101904.00;;;;5061747;28;20451;-82
2022/01/29 01:50:11;;;;;;;21.10;14.63;;;5.90;1.00;6.40;101892.00;;;;5071545;28;20528;-82
2022/01/29 01:52:39;;;;;;;23.97;15.33;;;5.90;1.00;6.40;101894.00;;;;5075557;28;20443;-81
2022/01/29 01:55:08;;;;;;;21.50;14.70;;;6.00;1.00;217.30;159421.00;;;;5059999;28;20530;-82
2022/01/29 01:57:37;;;;;;;18.20;13.10;;;5.90;1.00;6.40;67668.00;;;;5059783;28;20951;-83
2022/01/29 02:00:07;;;;;;;19.90;14.00;;;5.90;1.00;6.40;67668.00;;;;5058872;28;20559;-83
2022/01/29 02:02:42;;;;;;;24.97;15.20;;;5.90;1.00;6.30;101862.00;;;;5058090;28;20485;-81
2022/01/29 02:05:12;;;;;;;21.20;13.97;;;5.90;1.00;6.30;101848.00;;;;5072681;28;20526;-81
2022/01/29 02:07:40;;;;;;;21.97;14.60;;;5.90;1.00;6.30;101869.00;;;;5057352;28;20451;-82
2022/01/29 02:10:11;;;;;;;18.97;13.53;;;5.90;1.00;217.30;159399.00;;;;5055216;28;20525;-82
2022/01/29 02:12:50;;;;;;;18.33;12.20;;;5.90;1.00;6.30;101853.00;;;;5057208;28;20455;-82
2022/01/29 02:15:21;;;;;;;22.37;13.40;;;5.90;1.00;6.30;67663.00;;;;5058137;28;20514;-83
2022/01/29 02:17:51;;;;;;;19.10;12.80;;;5.90;1.00;6.40;101845.00;;;;5057080;28;20972;-81
2022/01/29 02:20:21;;;;;;;20.50;13.80;;;5.90;1.00;6.40;101852.00;;;;5057020;28;20466;-81
2022/01/29 02:22:52;;;;;;;18.67;12.60;;;6.00;1.00;6.40;101846.00;;;;5057996;28;20460;-81
2022/01/29 02:25:32;;;;;;;21.20;12.70;;;6.10;1.00;6.50;101850.00;;;;5060434;28;20686;-82
2022/01/29 02:28:03;;;;;;;17.93;11.50;;;6.10;1.00;6.50;101841.00;;;;5078642;28;20451;-82
2022/01/29 02:30:34;;;;;;;16.73;11.90;;;6.10;1.00;6.50;67693.00;;;;5060480;28;20478;-82
2022/01/29 02:33:06;;;;;;;19.00;13.97;;;6.10;1.00;6.50;101841.00;;;;5059202;28;20443;-81
2022/01/29 02:35:40;;;;;;;19.27;13.07;;;6.10;1.00;6.50;101839.00;;;;5055783;28;20450;-81
2022/01/29 02:38:10;;;;;;;18.67;13.17;;;6.10;1.00;52.70;159482.00;;;;5058413;28;20959;-82
2022/01/29 02:40:46;;;;;;;18.00;12.13;;;6.10;1.00;6.50;101813.00;;;;5039098;28;20538;-82
2022/01/29 02:43:18;;;;;;;19.70;12.60;;;6.10;1.00;6.50;101795.00;;;;5059098;28;20458;-81
2022/01/29 02:45:47;;;;;;;22.87;12.17;;;6.00;1.00;6.40;101801.00;;;;5056462;28;20467;-82
2022/01/29 02:48:15;;;;;;;16.57;12.00;;;6.00;1.00;6.40;101806.00;;;;5056034;28;21506;-83
2022/01/29 02:50:44;;;;;;;16.00;11.80;;;6.00;1.00;6.40;101805.00;;;;5056482;28;20471;-81
2022/01/29 02:53:14;;;;;;;21.40;13.63;;;5.90;1.00;6.40;67668.00;;;;5065026;28;20995;-81
2022/01/29 02:55:42;;;;;;;18.93;13.00;;;5.90;1.00;6.40;101801.00;;;;5061584;28;20446;-81
2022/01/29 02:58:11;;;;;;;22.07;11.53;;;5.90;1.00;6.40;67668.00;;;;5061908;28;20451;-82
2022/01/29 03:00:39;;;;;;;20.10;12.30;;;5.90;1.00;6.30;101783.00;;;;5066823;28;20483;-83
2022/01/29 03:03:08;;;;;;;19.40;12.33;;;6.10;1.00;6.30;101794.00;;;;5068843;28;20447;-83
2022/01/29 03:05:36;;;;;;;19.37;13.03;;;5.90;1.00;6.40;67663.00;;;;5067175;28;20456;-83
2022/01/29 03:08:05;;;;;;;19.40;12.27;;;5.90;1.00;6.40;101781.00;;;;5065561;28;20473;-82
2022/01/29 03:10:35;;;;;;;19.00;14.07;;;5.90;1.00;6.40;101780.00;;;;5067492;28;20467;-83
2022/01/29 03:13:04;;;;;;;23.87;13.90;;;6.20;1.00;6.40;67668.00;;;;5071571;28;20448;-82
2022/01/29 03:15:32;;;;;;;23.50;16.10;;;5.90;1.00;217.30;159415.00;;;;5044278;28;20444;-82
2022/01/29 03:18:00;;;;;;;21.27;14.03;;;5.90;1.00;6.40;67668.00;;;;5063168;28;20442;-83
2022/01/29 03:20:30;;;;;;;22.93;14.87;;;6.00;1.00;6.40;67668.00;;;;5054363;28;20934;-81
2022/01/29 03:22:58;;;;;;;21.70;13.57;;;5.90;1.00;6.40;101793.00;;;;5064855;28;20447;-82
2022/01/29 03:25:27;;;;;;;18.17;13.37;;;5.90;1.00;6.40;101783.00;;;;5065367;28;20455;-80
2022/01/29 03:27:57;;;;;;;19.27;13.63;;;5.90;1.00;6.40;101790.00;;;;5049637;28;20449;-82
2022/01/29 03:30:26;;;;;;;20.20;13.33;;;5.90;1.00;6.30;101759.00;;;;5063951;28;20471;-82
2022/01/29 03:32:54;;;;;;;20.23;14.10;;;6.00;1.00;6.30;101737.00;;;;5061211;28;20471;-82
2022/01/29 03:35:22;;;;;;;21.60;14.77;;;5.90;1.00;6.30;101743.00;;;;5060820;28;20459;-81
2022/01/29 03:37:51;;;;;;;24.70;15.43;;;5.90;1.00;6.30;101745.00;;;;5067322;28;20954;-82
2022/01/29 03:40:19;;;;;;;20.73;12.50;;;5.90;1.00;6.30;101758.00;;;;5066168;28;20468;-81
2022/01/29 03:42:59;;;;;;;25.73;15.87;;;5.90;1.00;6.20;101724.00;;;;5065281;28;20550;-81
2022/01/29 03:45:29;;;;;;;24.10;15.77;;;5.80;1.00;6.20;101738.00;;;;5064694;28;20455;-83
2022/01/29 03:48:01;;;;;;;24.50;14.43;;;5.80;1.00;6.20;67637.00;;;;5064735;28;20455;-82
2022/01/29 03:50:30;;;;;;;21.20;15.30;;;5.80;1.00;6.20;101741.00;;;;5068296;28;20488;-83
2022/01/29 03:52:58;;;;;;;20.80;15.57;;;5.80;1.00;6.20;101738.00;;;;5065013;28;20562;-81
2022/01/29 03:55:27;;;;;;;19.17;13.40;;;5.80;1.00;6.20;101769.00;;;;5073352;28;20461;-82
2022/01/29 03:57:55;;;;;;;21.23;13.50;;;5.80;1.00;6.20;101741.00;;;;5073299;28;20443;-82
2022/01/29 04:00:23;;;;;;;20.90;14.03;;;5.80;1.00;6.20;101735.00;;;;5073429;28;20495;-81
2022/01/29 04:02:53;;;;;;;19.93;13.67;;;5.80;1.00;6.20;67623.00;;;;5069478;28;20458;-82
2022/01/29 04:05:22;;;;;;;18.90;13.80;;;5.70;1.00;217.30;159331.00;;;;5062902;28;20475;-81
2022/01/29 04:07:50;;;;;;;21.23;14.43;;;5.70;1.00;6.10;101725.00;;;;5063989;28;20451;-82
2022/01/29 04:10:19;;;;;;;20.53;14.43;;;5.60;1.00;217.30;159306.00;;;;5064585;28;20476;-82
2022/01/29 04:12:52;;;;;;;19.67;14.17;;;5.70;1.00;6.10;101730.00;;;;5070597;28;20470;-83
2022/01/29 04:15:20;;;;;;;20.80;13.77;;;5.80;1.00;6.20;101725.00;;;;5069654;28;20455;-83
2022/01/29 04:17:49;;;;;;;19.67;13.63;;;5.70;1.00;6.20;101731.00;;;;5075083;28;20449;-83
2022/01/29 04:20:18;;;;;;;22.17;14.97;;;5.70;1.00;6.20;67631.00;;;;5078490;28;20480;-83
2022/01/29 04:22:47;;;;;;;18.23;12.40;;;5.80;1.00;6.20;101717.00;;;;5076571;28;20468;-84
2022/01/29 04:25:15;;;;;;;17.60;13.70;;;5.80;1.00;6.30;101738.00;;;;5069361;28;20447;-81
2022/01/29 04:27:46;;;;;;;20.43;13.50;;;5.80;1.00;6.30;67648.00;;;;5065651;28;20451;-83
2022/01/29 04:30:25;;;;;;;19.00;14.60;;;5.80;1.00;6.30;101727.00;;;;5064591;28;20471;-82
2022/01/29 04:33:15;;;;;;;12.97;8.90;;;5.80;1.00;52.70;159369.00;;;;5064593;28;20483;-80
2022/01/29 04:35:45;;;;;;;21.27;13.77;;;5.90;1.00;6.30;101721.00;;;;5061413;28;20451;-82
2022/01/29 04:38:13;;;;;;;17.27;12.57;;;5.90;1.00;6.30;101714.00;;;;5060108;28;20457;-81
2022/01/29 04:40:42;;;;;;;15.20;12.00;;;5.90;1.00;6.30;67651.00;;;;5059862;28;20455;-81
2022/01/29 04:43:10;;;;;;;18.17;13.93;;;5.90;1.00;6.30;101717.00;;;;5044274;28;20472;-81
2022/01/29 04:45:40;;;;;;;18.37;12.93;;;5.90;1.00;6.40;67659.00;;;;5061667;28;20451;-84
2022/01/29 04:48:08;;;;;;;17.90;13.37;;;5.90;1.00;217.30;159389.00;;;;5060801;28;20462;-84
2022/01/29 04:50:37;;;;;;;17.20;11.93;;;5.90;1.00;6.30;67660.00;;;;5060342;28;20519;-84
2022/01/29 04:53:07;;;;;;;17.23;13.33;;;5.90;1.00;217.30;159411.00;;;;5061865;28;20517;-82
2022/01/29 04:55:36;;;;;;;18.80;12.00;;;5.90;1.00;6.40;101713.00;;;;5061728;28;20444;-82
2022/01/29 04:58:05;;;;;;;18.57;11.70;;;6.10;1.00;6.40;101708.00;;;;5062545;28;20493;-82
2022/01/29 05:00:35;;;;;;;16.80;12.27;;;5.90;1.00;6.40;101710.00;;;;5064821;28;20471;-79
2022/01/29 05:03:09;;;;;;;17.50;12.13;;;6.00;1.00;6.40;101721.00;;;;5063280;28;20444;-81
2022/01/29 05:05:38;;;;;;;17.63;12.13;;;6.00;1.00;6.40;101689.00;;;;5068251;28;20469;-83
2022/01/29 05:08:09;;;;;;;20.60;12.80;;;6.00;1.00;52.70;159457.00;;;;5073259;28;20455;-82
2022/01/29 05:10:37;;;;;;;17.33;14.83;;;6.10;1.00;6.50;101698.00;;;;5064062;28;20447;-84
2022/01/29 05:13:08;;;;;;;20.97;13.50;;;6.10;1.00;6.40;101692.00;;;;5051097;28;20579;-82
2022/01/29 05:15:40;;;;;;;16.37;10.73;;;6.00;1.00;6.40;101700.00;;;;5060763;28;20468;-81
2022/01/29 05:29:17;;;;;;;17.07;12.73;;;6.00;1.00;6.40;101685.00;;;;5055384;28;20605;-82
2022/01/29 05:31:50;;;;;;;17.23;12.27;;;6.00;1.00;6.30;67668.00;;;;5059549;28;20451;-82
2022/01/29 05:34:20;;;;;;;17.53;12.03;;;5.90;1.00;52.70;159399.00;;;;5062486;28;21041;-82
2022/01/29 05:36:49;;;;;;;15.07;10.87;;;6.00;1.00;6.40;101685.00;;;;5068692;28;20458;-83
2022/01/29 05:39:19;;;;;;;17.17;11.03;;;6.10;1.00;6.30;101671.00;;;;5070541;28;20467;-81
2022/01/29 05:41:47;;;;;;;16.47;10.80;;;5.90;1.00;6.40;101672.00;;;;5083549;28;20441;-84
2022/01/29 05:44:16;;;;;;;16.60;11.83;;;6.00;1.00;6.40;101660.00;;;;5076092;28;20441;-82
2022/01/29 05:46:44;;;;;;;18.37;10.87;;;6.00;1.00;6.40;67676.00;;;;5063801;28;20455;-83
2022/01/29 05:49:12;;;;;;;15.63;10.93;;;6.00;1.00;6.40;101676.00;;;;5059116;28;20587;-82
2022/01/29 05:51:41;;;;;;;14.13;8.93;;;6.00;1.00;6.40;101655.00;;;;5057380;28;20796;-82
2022/01/29 05:54:09;;;;;;;16.60;10.60;;;6.10;1.00;6.30;101662.00;;;;5054710;28;20455;-83
2022/01/29 05:56:39;;;;;;;13.67;10.33;;;5.90;1.00;217.30;159389.00;;;;5058674;28;20939;-81
2022/01/29 05:59:07;;;;;;;15.13;10.77;;;6.00;1.00;217.30;159383.00;;;;5073727;28;20486;-82
2022/01/29 06:01:35;;;;;;;13.70;9.33;;;5.80;1.00;217.30;159383.00;;;;5057443;28;20486;-82
2022/01/29 06:04:06;;;;;;;17.17;10.60;;;5.90;1.00;6.30;67648.00;;;;5060692;28;20461;-82
2022/01/29 06:06:34;;;;;;;16.20;11.70;;;5.80;1.00;6.30;101640.00;;;;5056969;28;20458;-82
2022/01/29 06:09:04;;;;;;;17.97;11.50;;;5.80;1.00;52.70;159367.00;;;;5056445;28;20523;-82
2022/01/29 06:11:33;;;;;;;12.27;8.30;;;5.80;1.00;6.20;67626.00;;;;5057107;28;20474;-83
2022/01/29 06:14:03;;;;;;;19.03;12.30;;;5.80;1.00;217.30;159325.00;;;;5060525;28;20857;-82
2022/01/29 06:16:31;;;;;;;13.00;9.63;;;5.70;1.00;6.20;67623.00;;;;5074351;28;20467;-82
2022/01/29 06:18:59;;;;;;;16.53;12.00;;;5.70;1.00;6.10;67620.00;;;;5059420;28;20487;-83
2022/01/29 06:21:28;;;;;;;15.53;10.40;;;5.70;1.00;6.20;67612.00;;;;5065316;28;20463;-84
2022/01/29 06:23:57;;;;;;;16.27;11.67;;;5.70;1.00;6.10;101622.00;;;;5073253;28;20487;-84
2022/01/29 06:26:26;;;;;;;16.30;11.10;;;5.70;1.00;6.20;67625.00;;;;5072564;28;20654;-84
2022/01/29 06:28:55;;;;;;;16.63;11.37;;;5.70;1.00;217.30;159353.00;;;;5069466;28;21084;-81
2022/01/29 06:31:24;;;;;;;16.13;11.20;;;5.70;1.00;217.30;159363.00;;;;5057856;28;20455;-81
2022/01/29 06:33:53;;;;;;;17.03;11.83;;;5.80;1.00;6.20;101635.00;;;;5074957;28;20500;-81
2022/01/29 06:36:21;;;;;;;18.57;11.17;;;5.80;1.00;6.10;101620.00;;;;5062316;28;20470;-82
2022/01/29 06:38:49;;;;;;;18.50;12.47;;;5.70;1.00;217.30;159264.00;;;;5065103;28;20558;-83
2022/01/29 06:41:18;;;;;;;15.90;10.63;;;5.60;1.00;6.00;67592.00;;;;5064796;28;21035;-83
2022/01/29 06:43:46;;;;;;;17.10;11.87;;;5.60;1.00;6.00;101627.00;;;;5064267;28;20472;-83
2022/01/29 06:46:14;;;;;;;16.27;11.67;;;5.60;1.00;6.10;67592.00;;;;5065342;28;21092;-81
2022/01/29 06:48:44;;;;;;;16.13;10.77;;;5.60;1.00;6.10;67601.00;;;;5057075;28;20903;-84
2022/01/29 06:51:12;;;;;;;16.47;11.03;;;5.70;1.00;6.00;67601.00;;;;5060871;28;20532;-82
2022/01/29 06:53:41;;;;;;;18.80;11.40;;;5.60;1.00;6.10;67601.00;;;;5061560;28;21579;-81
2022/01/29 06:56:09;;;;;;;15.07;11.20;;;5.70;1.00;6.10;101623.00;;;;5065734;28;20467;-82
2022/01/29 06:58:37;;;;;;;16.03;11.13;;;5.60;1.00;6.10;101630.00;;;;5063694;28;20535;-82
2022/01/29 07:01:26;;;;;;;17.03;11.83;;;5.60;1.00;6.10;101622.00;;;;5063074;28;20493;-82
2022/01/29 07:03:55;;;;;;;13.60;9.63;;;5.70;1.00;6.10;101614.00;;;;5065134;28;20534;-83
2022/01/29 07:06:23;;;;;;;16.67;11.50;;;5.60;1.00;6.10;101621.00;;;;5065838;28;20471;-81
2022/01/29 07:08:52;;;;;;;17.30;12.50;;;5.60;1.00;6.10;101625.00;;;;5078537;28;20472;-81
2022/01/29 07:11:23;;;;;;;15.13;11.50;;;5.60;1.00;6.10;101630.00;;;;5061789;28;20516;-84
2022/01/29 07:14:00;;;;;;;17.00;11.47;;;5.60;1.00;217.30;159290.00;;;;5080633;28;20482;-84
2022/01/29 07:16:29;;;;;;;14.00;11.33;;;5.70;1.00;6.10;67608.00;;;;5063709;28;20473;-83
2022/01/29 07:18:59;;;;;;;17.43;11.60;;;5.60;1.00;6.10;67601.00;;;;5060805;28;20475;-84
2022/01/29 07:21:28;;;;;;;17.67;12.17;;;5.70;1.00;217.30;159278.00;;;;5063261;28;20456;-84
2022/01/29 07:23:56;;;;;;;20.90;14.00;;;5.60;1.00;6.00;67595.00;;;;5065843;28;20456;-82
2022/01/29 07:26:24;;;;;;;17.17;12.47;;;5.60;1.00;5.90;67592.00;;;;5059091;28;20995;-82
2022/01/29 07:28:53;;;;;;;19.20;12.30;;;5.60;1.00;6.00;101584.00;;;;5057965;28;20601;-83
2022/01/29 07:31:22;;;;;;;16.70;11.20;;;5.50;1.00;6.00;101604.00;;;;5056470;28;20567;-82
2022/01/29 07:33:50;;;;;;;18.70;12.40;;;5.50;1.00;6.00;67576.00;;;;5059651;28;20536;-81
2022/01/29 07:36:20;;;;;;;23.80;13.63;;;5.50;1.00;5.90;67562.00;;;;5058225;28;20458;-81
2022/01/29 07:38:48;;;;;;;19.57;14.00;;;5.50;1.00;5.90;67573.00;;;;5058643;28;20482;-82
2022/01/29 07:41:16;;;;;;;21.27;12.40;;;5.50;1.00;52.70;159226.00;;;;5061665;28;21694;-83
2022/01/29 07:43:44;;;;;;;18.37;13.20;;;5.50;1.00;217.30;159222.00;;;;5062723;28;20462;-82
2022/01/29 07:46:13;;;;;;;16.97;12.87;;;5.50;1.00;6.00;101585.00;;;;5062751;28;20463;-84
2022/01/29 07:48:41;;;;;;;19.03;13.40;;;5.50;1.00;217.30;159236.00;;;;5067453;28;20501;-84
2022/01/29 07:51:09;;;;;;;16.60;11.13;;;5.50;1.00;6.00;67573.00;;;;5066508;28;20452;-84
2022/01/29 07:53:39;;;;;;;19.07;13.80;;;5.50;1.00;6.00;67587.00;;;;5065657;28;20575;-84
2022/01/29 07:56:07;;;;;;;20.50;12.70;;;5.50;1.00;6.10;67603.00;;;;5066269;28;20459;-82
2022/01/29 07:58:36;;;;;;;20.67;14.20;;;5.60;1.00;217.30;159310.00;;;;5064758;28;20475;-83
2022/01/29 08:01:04;;;;;;;18.30;13.47;;;5.70;1.00;6.10;101565.00;;;;5064771;28;20450;-85
2022/01/29 08:03:33;;;;;;;20.07;13.93;;;5.70;1.00;6.20;101562.00;;;;5078268;28;20458;-85
2022/01/29 08:06:01;;;;;;;24.30;15.07;;;5.80;1.00;6.20;101568.00;;;;5075029;28;20474;-82
2022/01/29 08:08:30;;;;;;;17.10;13.53;;;5.80;1.00;6.20;101593.00;;;;5067266;28;20472;-83
2022/01/29 08:10:59;;;;;;;17.67;13.10;;;5.90;1.00;6.20;67634.00;;;;5066440;28;20468;-82
2022/01/29 08:13:28;;;;;;;16.73;11.20;;;5.80;1.00;6.20;67623.00;;;;5067478;28;20497;-83
2022/01/29 08:15:56;;;;;;;19.03;13.10;;;5.70;1.00;6.20;101579.00;;;;5064762;28;21130;-81
2022/01/29 08:18:24;;;;;;;17.73;12.47;;;5.70;1.00;6.30;101575.00;;;;5064112;28;20462;-84
2022/01/29 08:20:53;;;;;;;13.80;9.20;;;5.80;1.00;6.30;101580.00;;;;5059681;28;20466;-85
2022/01/29 08:23:21;;;;;;;13.17;9.30;;;5.80;1.00;217.30;159363.00;;;;5058827;28;20464;-83
2022/01/29 08:25:50;;;;;;;13.87;11.33;;;5.80;1.00;6.20;101564.00;;;;5061265;28;20448;-83
2022/01/29 08:28:25;;;;;;;15.17;11.50;;;5.80;1.00;6.30;101583.00;;;;5066225;28;20523;-82
2022/01/29 08:30:54;;;;;;;13.53;11.10;;;5.80;1.00;6.30;101587.00;;;;5063536;28;20452;-81
2022/01/29 08:33:23;;;;;;;13.90;10.73;;;5.90;1.00;6.40;101590.00;;;;5063435;28;20451;-82
2022/01/29 08:35:52;;;;;;;12.60;10.20;;;5.90;1.00;6.40;101588.00;;;;5065682;28;20567;-80
2022/01/29 08:38:21;;;;;;;12.67;9.80;;;6.00;1.00;6.50;101595.00;;;;5074629;28;20470;-82
2022/01/29 08:40:52;;;;;;;14.03;10.00;;;6.00;1.00;217.30;159472.00;;;;5083187;28;20940;-83
2022/01/29 08:43:20;;;;;;;15.77;10.50;;;6.00;1.00;6.50;67696.00;;;;5072232;28;20523;-82
2022/01/29 08:45:52;;;;;;;12.50;9.97;;;6.10;1.00;6.60;101569.00;;;;5081819;28;20456;-82
2022/01/29 08:48:21;;;;;;;13.23;9.90;;;6.20;1.00;6.70;101599.00;;;;5077993;28;20443;-85
2022/01/29 08:50:50;;;;;;;12.50;9.97;;;6.30;1.00;6.70;67748.00;;;;5075223;28;20432;-85
2022/01/29 08:53:20;;;;;;;11.27;10.07;;;6.40;1.00;217.30;159583.00;;;;5065777;28;20471;-83
2022/01/29 08:55:48;;;;;;;12.60;9.43;;;6.40;1.00;6.80;67769.00;;;;5066181;28;20458;-82
2022/01/29 08:58:17;;;;;;;14.17;10.00;;;6.50;1.00;6.80;101557.00;;;;5072077;28;20466;-82
2022/01/29 09:00:47;;;;;;;11.60;8.70;;;6.40;1.00;6.80;101573.00;;;;5067830;28;20460;-85
2022/01/29 09:03:19;;;;;;;11.60;9.63;;;6.40;1.00;217.30;159629.00;;;;5064336;28;20452;-84
2022/01/29 09:05:48;;;;;;;11.60;8.30;;;6.50;1.00;6.90;101553.00;;;;5065117;28;20485;-81
2022/01/29 09:08:18;;;;;;;11.90;9.37;;;6.50;1.00;6.90;67791.00;;;;5078650;28;20448;-83
2022/01/29 09:10:47;;;;;;;11.93;8.83;;;6.50;1.00;7.00;67799.00;;;;5062263;28;20459;-82
2022/01/29 09:13:15;;;;;;;9.50;8.07;;;6.50;1.00;7.00;67799.00;;;;5060791;28;20448;-83
2022/01/29 09:15:44;;;;;;;10.00;7.47;;;6.60;1.00;217.30;159667.00;;;;5060815;28;20470;-82
2022/01/29 09:18:12;;;;;;;10.20;7.37;;;6.50;1.00;7.00;67799.00;;;;5061008;28;20451;-83
2022/01/29 09:20:42;;;;;;;8.40;6.90;;;6.50;1.00;7.00;67814.00;;;;5064612;28;20459;-81
2022/01/29 09:23:11;;;;;;;7.47;6.10;;;6.60;1.00;7.00;67818.00;;;;5058061;28;21016;-82
2022/01/29 09:25:40;;;;;;;7.87;6.50;;;6.60;1.00;52.70;159689.00;;;;5064746;28;20552;-82
2022/01/29 09:28:12;;;;;;;7.17;4.57;;;6.60;1.00;7.00;67809.00;;;;5063527;28;20451;-84
2022/01/29 09:30:41;;;;;;;9.93;6.47;;;6.60;1.00;7.00;67813.00;;;;5062392;28;20459;-83
2022/01/29 09:33:10;;;;;;;8.07;6.47;;;6.60;1.00;217.30;159699.00;;;;5043736;28;20464;-82
2022/01/29 09:35:39;;;;;;;6.37;5.33;;;6.60;1.00;7.00;67820.00;;;;5063368;28;20488;-83
2022/01/29 09:38:09;;;;;;;7.20;5.80;;;6.60;1.00;7.10;67835.00;;;;5060657;28;20452;-81
2022/01/29 09:40:41;;;;;;;6.60;5.63;;;6.80;1.00;7.10;101528.00;;;;5073004;28;20467;-82
2022/01/29 09:43:11;;;;;;;6.37;4.50;;;6.60;1.00;7.10;101535.00;;;;5058028;28;20466;-81
2022/01/29 09:45:40;;;;;;;6.97;5.73;;;6.70;1.00;7.10;101525.00;;;;5058881;28;20451;-82
2022/01/29 09:48:08;;;;;;;5.83;4.60;;;6.70;1.00;217.30;159704.00;;;;5056569;28;20531;-84
2022/01/29 09:50:39;;;;;;;6.23;5.20;;;6.70;1.00;7.10;67814.00;;;;5060230;28;20448;-84
2022/01/29 09:53:09;;;;;;;8.40;4.60;;;6.70;1.00;7.00;67820.00;;;;5057474;28;20900;-83
2022/01/29 09:55:37;;;;;;;5.90;4.60;;;6.60;1.00;7.10;67818.00;;;;5066074;28;20467;-81
2022/01/29 09:58:06;;;;;;;6.00;4.17;;;6.60;1.00;7.10;67824.00;;;;5057199;28;21557;-81
2022/01/29 10:00:35;;;;;;;5.00;3.40;;;6.70;1.00;217.30;159750.00;;;;5059690;28;20506;-81
2022/01/29 10:03:21;;;;;;;6.63;3.87;;;6.70;1.00;7.10;67845.00;;;;5060988;28;20502;-82
2022/01/29 10:05:56;;;;;;;5.13;3.53;;;6.80;1.00;7.20;101510.00;;;;5056929;28;20590;-81
2022/01/29 10:08:27;;;;;;;4.50;3.13;;;6.90;1.00;7.20;67864.00;;;;5062330;28;20448;-81
2022/01/29 10:10:59;;;;;;;3.70;3.20;;;6.80;1.00;217.30;159819.00;;;;5057993;28;20449;-82
2022/01/29 10:13:32;;;;;;;3.23;1.87;;;7.00;1.00;7.30;67869.00;;;;5059396;28;20455;-82
2022/01/29 10:16:10;;;;;;;4.83;3.57;;;6.90;1.00;7.20;101507.00;;;;5060309;28;20487;-81
2022/01/29 10:18:40;;;;;;;3.57;2.67;;;6.80;1.00;7.20;101507.00;;;;5055310;28;20507;-82
2022/01/29 10:21:12;;;;;;;3.83;2.53;;;6.80;1.00;7.20;67860.00;;;;5059167;28;20509;-83
2022/01/29 10:23:43;;;;;;;3.33;3.00;;;6.80;1.00;7.20;101498.00;;;;5059426;28;20447;-82
2022/01/29 10:26:27;;;;;;;3.90;3.30;;;6.80;1.00;7.30;101514.00;;;;5058626;28;20502;-84
2022/01/29 10:28:57;;;;;;;2.70;2.17;;;6.90;1.00;7.30;101519.00;;;;5055513;28;20467;-82
2022/01/29 10:31:26;;;;;;;4.23;2.97;;;6.90;1.00;7.30;101517.00;;;;5060994;28;20483;-83
2022/01/29 10:33:54;;;;;;;3.50;2.77;;;6.90;1.00;7.30;67881.00;;;;5062004;28;20484;-83
2022/01/29 10:36:24;;;;;;;3.20;2.60;;;6.90;1.00;7.40;67881.00;;;;5066588;28;20578;-81
2022/01/29 10:38:57;;;;;;;2.93;2.63;;;6.90;1.00;7.40;67888.00;;;;5069316;28;20478;-81
2022/01/29 10:41:31;;;;;;;3.00;2.67;;;7.00;1.00;217.30;159861.00;;;;5046574;28;20473;-82
2022/01/29 10:44:18;;;;;;;2.50;2.30;;;7.00;1.00;7.40;101511.00;;;;5063815;28;20478;-82
2022/01/29 10:46:50;;;;;;;4.20;2.43;;;7.00;1.00;7.30;67881.00;;;;5060599;28;20863;-82
2022/01/29 10:49:27;;;;;;;3.50;3.00;;;7.00;1.00;217.30;159829.00;;;;5057748;28;20489;-82
2022/01/29 10:52:03;;;;;;;3.40;2.80;;;6.90;1.00;217.30;159835.00;;;;5067069;28;20446;-82
2022/01/29 10:54:35;;;;;;;3.60;3.00;;;6.90;1.00;7.30;101075.00;;;;5062793;28;20561;-82
2022/01/29 10:57:06;;;;;;;2.50;2.30;;;6.90;1.00;7.40;101496.00;;;;5061080;28;20538;-82
2022/01/29 10:59:38;;;;;;;4.20;2.93;;;7.00;1.00;217.30;159797.00;;;;5063748;28;20483;-83
2022/01/29 11:02:09;;;;;;;3.30;2.70;;;6.80;1.00;7.10;67845.00;;;;5062310;28;20469;-83
2022/01/29 11:04:42;;;;;;;3.20;2.87;;;6.90;1.00;217.30;159797.00;;;;5042939;28;20531;-83
2022/01/29 11:07:16;;;;;;;3.40;2.93;;;6.90;1.00;7.30;101487.00;;;;5059408;28;20547;-83
2022/01/29 11:09:50;;;;;;;3.67;3.10;;;6.90;1.00;7.40;101489.00;;;;5059472;28;20487;-80
2022/01/29 11:12:21;;;;;;;5.67;2.83;;;7.00;1.00;7.40;101485.00;;;;5079109;28;20545;-85
2022/01/29 11:14:51;;;;;;;4.00;2.80;;;7.00;1.00;7.40;101485.00;;;;5075771;28;21238;-82
2022/01/29 11:17:21;;;;;;;4.07;3.23;;;6.90;1.00;7.40;67894.00;;;;5073574;28;20446;-82
2022/01/29 11:19:49;;;;;;;3.67;3.03;;;7.00;1.00;7.40;101482.00;;;;5070379;28;20480;-82